sensor_id;sensor_type;location;lat;lon;timestamp;P1;P2;P0
63707;PMS5003;67643;-34.198;22.084;2023-02-15T00:01:21;2;1;
63707;PMS5003;67643;-34.198;22.084;2023-02-15T00:03:50;2;2;
63707;PMS5003;67643;-34.198;22.084;2023-02-15T00:06:19;4;2;
63707;PMS5003;67643;-34.198;22.084;2023-02-15T00:08:48;4;2;
63707;PMS5003;67643;-34.198;22.084;2023-02-15T00:11:17;4;2;
63707;PMS5003;67643;-34.198;22.084;2023-02-15T00:13:46;0;0;
63707;PMS5003;67643;-34.198;22.084;2023-02-15T00:16:14;2;2;
63707;PMS5003;67643;-34.198;22.084;2023-02-15T00:18:43;3;2;
63707;PMS5003;67643;-34.198;22.084;2023-02-15T00:21:12;5;2;
63707;PMS5003;67643;-34.198;22.084;2023-02-15T00:23:41;0;0;
63707;PMS5003;67643;-34.198;22.084;2023-02-15T00:26:10;3;3;
63707;PMS5003;67643;-34.198;22.084;2023-02-15T00:28:39;1;1;
63707;PMS5003;67643;-34.198;22.084;2023-02-15T00:31:08;2;1;
63707;PMS5003;67643;-34.198;22.084;2023-02-15T00:33:38;4;1;
63707;PMS5003;67643;-34.198;22.084;2023-02-15T00:36:08;2;2;
63707;PMS5003;67643;-34.198;22.084;2023-02-15T00:38:37;3;2;
63707;PMS5003;67643;-34.198;22.084;2023-02-15T00:41:07;4;1;
63707;PMS5003;67643;-34.198;22.084;2023-02-15T00:43:37;1;1;
63707;PMS5003;67643;-34.198;22.084;2023-02-15T00:46:05;6;3;
63707;PMS5003;67643;-34.198;22.084;2023-02-15T00:48:33;3;2;
63707;PMS5003;67643;-34.198;22.084;2023-02-15T00:51:03;5;2;
63707;PMS5003;67643;-34.198;22.084;2023-02-15T00:53:31;3;1;
63707;PMS5003;67643;-34.198;22.084;2023-02-15T00:56:00;1;1;
63707;PMS5003;67643;-34.198;22.084;2023-02-15T00:58:28;2;1;
63707;PMS5003;67643;-34.198;22.084;2023-02-15T01:01:01;1;1;
63707;PMS5003;67643;-34.198;22.084;2023-02-15T01:03:31;3;2;
63707;PMS5003;67643;-34.198;22.084;2023-02-15T01:06:01;1;1;
63707;PMS5003;67643;-34.198;22.084;2023-02-15T01:08:30;3;2;
63707;PMS5003;67643;-34.198;22.084;2023-02-15T01:11:03;2;1;
63707;PMS5003;67643;-34.198;22.084;2023-02-15T01:13:32;1;1;
63707;PMS5003;67643;-34.198;22.084;2023-02-15T01:16:01;3;2;
63707;PMS5003;67643;-34.198;22.084;2023-02-15T01:18:30;2;2;
63707;PMS5003;67643;-34.198;22.084;2023-02-15T01:21:00;2;2;
63707;PMS5003;67643;-34.198;22.084;2023-02-15T01:23:38;5;3;
63707;PMS5003;67643;-34.198;22.084;2023-02-15T01:26:08;2;2;
63707;PMS5003;67643;-34.198;22.084;2023-02-15T01:28:38;6;4;
63707;PMS5003;67643;-34.198;22.084;2023-02-15T01:31:07;2;2;
63707;PMS5003;67643;-34.198;22.084;2023-02-15T01:33:36;5;4;
63707;PMS5003;67643;-34.198;22.084;2023-02-15T01:36:06;4;2;
63707;PMS5003;67643;-34.198;22.084;2023-02-15T01:38:35;1;1;
63707;PMS5003;67643;-34.198;22.084;2023-02-15T01:41:04;3;3;
63707;PMS5003;67643;-34.198;22.084;2023-02-15T01:43:39;3;1;
63707;PMS5003;67643;-34.198;22.084;2023-02-15T01:46:09;5;3;
63707;PMS5003;67643;-34.198;22.084;2023-02-15T01:48:40;4;2;
63707;PMS5003;67643;-34.198;22.084;2023-02-15T01:51:13;3;3;
63707;PMS5003;67643;-34.198;22.084;2023-02-15T01:53:46;5;3;
63707;PMS5003;67643;-34.198;22.084;2023-02-15T01:56:18;4;2;
63707;PMS5003;67643;-34.198;22.084;2023-02-15T01:58:50;2;2;
63707;PMS5003;67643;-34.198;22.084;2023-02-15T02:01:22;3;0;
63707;PMS5003;67643;-34.198;22.084;2023-02-15T02:03:55;5;2;
63707;PMS5003;67643;-34.198;22.084;2023-02-15T02:06:27;1;1;
63707;PMS5003;67643;-34.198;22.084;2023-02-15T02:08:56;1;1;
63707;PMS5003;67643;-34.198;22.084;2023-02-15T02:11:24;1;1;
63707;PMS5003;67643;-34.198;22.084;2023-02-15T02:13:53;4;1;
63707;PMS5003;67643;-34.198;22.084;2023-02-15T02:16:23;4;4;
63707;PMS5003;67643;-34.198;22.084;2023-02-15T02:19:01;2;1;
63707;PMS5003;67643;-34.198;22.084;2023-02-15T02:22:14;2;2;
63707;PMS5003;67643;-34.198;22.084;2023-02-15T02:23:49;2;2;
63707;PMS5003;67643;-34.198;22.084;2023-02-15T02:26:46;2;2;
63707;PMS5003;67643;-34.198;22.084;2023-02-15T02:29:56;3;3;
63707;PMS5003;67643;-34.198;22.084;2023-02-15T02:33:37;3;1;
63707;PMS5003;67643;-34.198;22.084;2023-02-15T02:36:12;5;4;
63707;PMS5003;67643;-34.198;22.084;2023-02-15T02:38:51;1;1;
63707;PMS5003;67643;-34.198;22.084;2023-02-15T02:41:31;1;1;
63707;PMS5003;67643;-34.198;22.084;2023-02-15T02:44:07;5;1;
63707;PMS5003;67643;-34.198;22.084;2023-02-15T02:46:46;2;1;
63707;PMS5003;67643;-34.198;22.084;2023-02-15T02:49:31;2;1;
63707;PMS5003;67643;-34.198;22.084;2023-02-15T02:52:02;3;2;
63707;PMS5003;67643;-34.198;22.084;2023-02-15T02:54:32;4;2;
63707;PMS5003;67643;-34.198;22.084;2023-02-15T02:57:03;2;1;
63707;PMS5003;67643;-34.198;22.084;2023-02-15T02:59:36;5;2;
63707;PMS5003;67643;-34.198;22.084;2023-02-15T03:02:10;5;2;
63707;PMS5003;67643;-34.198;22.084;2023-02-15T03:04:44;2;2;
63707;PMS5003;67643;-34.198;22.084;2023-02-15T03:07:17;3;3;
63707;PMS5003;67643;-34.198;22.084;2023-02-15T03:09:50;3;2;
63707;PMS5003;67643;-34.198;22.084;2023-02-15T03:12:21;2;2;
63707;PMS5003;67643;-34.198;22.084;2023-02-15T03:14:56;2;2;
63707;PMS5003;67643;-34.198;22.084;2023-02-15T03:17:29;3;3;
63707;PMS5003;67643;-34.198;22.084;2023-02-15T03:20:02;5;3;
63707;PMS5003;67643;-34.198;22.084;2023-02-15T03:22:34;1;1;
63707;PMS5003;67643;-34.198;22.084;2023-02-15T03:25:07;2;2;
63707;PMS5003;67643;-34.198;22.084;2023-02-15T03:27:40;2;1;
63707;PMS5003;67643;-34.198;22.084;2023-02-15T03:30:13;2;2;
63707;PMS5003;67643;-34.198;22.084;2023-02-15T03:32:44;4;2;
63707;PMS5003;67643;-34.198;22.084;2023-02-15T03:35:15;2;2;
63707;PMS5003;67643;-34.198;22.084;2023-02-15T03:37:45;4;3;
63707;PMS5003;67643;-34.198;22.084;2023-02-15T03:40:19;2;2;
63707;PMS5003;67643;-34.198;22.084;2023-02-15T03:42:55;5;4;
63707;PMS5003;67643;-34.198;22.084;2023-02-15T03:45:29;3;2;
63707;PMS5003;67643;-34.198;22.084;2023-02-15T03:48:00;0;0;
63707;PMS5003;67643;-34.198;22.084;2023-02-15T03:50:31;1;1;
63707;PMS5003;67643;-34.198;22.084;2023-02-15T03:53:04;3;3;
63707;PMS5003;67643;-34.198;22.084;2023-02-15T03:55:36;4;2;
63707;PMS5003;67643;-34.198;22.084;2023-02-15T03:58:04;3;3;
63707;PMS5003;67643;-34.198;22.084;2023-02-15T04:00:34;5;5;
63707;PMS5003;67643;-34.198;22.084;2023-02-15T06:05:36;13;7;
63707;PMS5003;67643;-34.198;22.084;2023-02-15T06:08:04;12;9;
63707;PMS5003;67643;-34.198;22.084;2023-02-15T06:10:33;15;12;
63707;PMS5003;67643;-34.198;22.084;2023-02-15T06:13:02;12;9;
63707;PMS5003;67643;-34.198;22.084;2023-02-15T06:15:30;13;9;
63707;PMS5003;67643;-34.198;22.084;2023-02-15T06:17:59;18;12;
63707;PMS5003;67643;-34.198;22.084;2023-02-15T06:20:27;15;12;
63707;PMS5003;67643;-34.198;22.084;2023-02-15T06:22:56;28;19;
63707;PMS5003;67643;-34.198;22.084;2023-02-15T06:25:24;18;15;
63707;PMS5003;67643;-34.198;22.084;2023-02-15T06:27:52;18;14;
63707;PMS5003;67643;-34.198;22.084;2023-02-15T06:30:21;21;17;
63707;PMS5003;67643;-34.198;22.084;2023-02-15T06:32:49;15;11;
63707;PMS5003;67643;-34.198;22.084;2023-02-15T06:35:18;14;9;
63707;PMS5003;67643;-34.198;22.084;2023-02-15T06:37:46;12;7;
63707;PMS5003;67643;-34.198;22.084;2023-02-15T06:40:16;13;10;
63707;PMS5003;67643;-34.198;22.084;2023-02-15T06:42:45;12;10;
63707;PMS5003;67643;-34.198;22.084;2023-02-15T06:45:14;10;9;
63707;PMS5003;67643;-34.198;22.084;2023-02-15T06:47:42;15;9;
63707;PMS5003;67643;-34.198;22.084;2023-02-15T06:50:11;13;10;
63707;PMS5003;67643;-34.198;22.084;2023-02-15T06:52:40;11;9;
63707;PMS5003;67643;-34.198;22.084;2023-02-15T06:55:09;10;10;
63707;PMS5003;67643;-34.198;22.084;2023-02-15T06:57:37;15;12;
63707;PMS5003;67643;-34.198;22.084;2023-02-15T07:00:06;17;16;
63707;PMS5003;67643;-34.198;22.084;2023-02-15T07:02:35;18;9;
63707;PMS5003;67643;-34.198;22.084;2023-02-15T07:05:04;8;6;
63707;PMS5003;67643;-34.198;22.084;2023-02-15T07:07:34;13;11;
63707;PMS5003;67643;-34.198;22.084;2023-02-15T07:10:03;7;6;
63707;PMS5003;67643;-34.198;22.084;2023-02-15T07:12:33;8;7;
63707;PMS5003;67643;-34.198;22.084;2023-02-15T07:15:01;10;5;
63707;PMS5003;67643;-34.198;22.084;2023-02-15T07:17:31;10;7;
63707;PMS5003;67643;-34.198;22.084;2023-02-15T07:19:59;8;6;
63707;PMS5003;67643;-34.198;22.084;2023-02-15T07:22:27;10;6;
63707;PMS5003;67643;-34.198;22.084;2023-02-15T07:24:55;6;4;
63707;PMS5003;67643;-34.198;22.084;2023-02-15T07:27:23;9;6;
63707;PMS5003;67643;-34.198;22.084;2023-02-15T07:29:51;12;6;
63707;PMS5003;67643;-34.198;22.084;2023-02-15T07:32:20;20;11;
63707;PMS5003;67643;-34.198;22.084;2023-02-15T07:34:48;12;10;
63707;PMS5003;67643;-34.198;22.084;2023-02-15T07:37:16;5;5;
63707;PMS5003;67643;-34.198;22.084;2023-02-15T07:39:44;14;9;
63707;PMS5003;67643;-34.198;22.084;2023-02-15T07:42:13;6;5;
63707;PMS5003;67643;-34.198;22.084;2023-02-15T07:44:41;7;4;
63707;PMS5003;67643;-34.198;22.084;2023-02-15T07:47:09;7;4;
63707;PMS5003;67643;-34.198;22.084;2023-02-15T07:49:38;11;6;
63707;PMS5003;67643;-34.198;22.084;2023-02-15T07:52:06;3;3;
63707;PMS5003;67643;-34.198;22.084;2023-02-15T07:54:35;10;5;
63707;PMS5003;67643;-34.198;22.084;2023-02-15T07:57:03;7;7;
63707;PMS5003;67643;-34.198;22.084;2023-02-15T07:59:31;4;4;
63707;PMS5003;67643;-34.198;22.084;2023-02-15T08:02:00;3;3;
63707;PMS5003;67643;-34.198;22.084;2023-02-15T08:04:28;10;3;
63707;PMS5003;67643;-34.198;22.084;2023-02-15T08:06:57;7;5;
63707;PMS5003;67643;-34.198;22.084;2023-02-15T08:09:26;6;5;
63707;PMS5003;67643;-34.198;22.084;2023-02-15T08:11:55;7;4;
63707;PMS5003;67643;-34.198;22.084;2023-02-15T08:14:23;5;4;
63707;PMS5003;67643;-34.198;22.084;2023-02-15T08:16:54;9;5;
63707;PMS5003;67643;-34.198;22.084;2023-02-15T08:19:26;5;5;
63707;PMS5003;67643;-34.198;22.084;2023-02-15T08:21:56;8;4;
63707;PMS5003;67643;-34.198;22.084;2023-02-15T08:24:27;9;8;
63707;PMS5003;67643;-34.198;22.084;2023-02-15T08:26:57;4;2;
63707;PMS5003;67643;-34.198;22.084;2023-02-15T08:29:27;2;2;
63707;PMS5003;67643;-34.198;22.084;2023-02-15T08:31:56;5;4;
63707;PMS5003;67643;-34.198;22.084;2023-02-15T08:34:25;12;4;
63707;PMS5003;67643;-34.198;22.084;2023-02-15T08:36:54;11;5;
63707;PMS5003;67643;-34.198;22.084;2023-02-15T08:39:23;8;5;
63707;PMS5003;67643;-34.198;22.084;2023-02-15T08:41:52;6;5;
63707;PMS5003;67643;-34.198;22.084;2023-02-15T08:44:21;9;5;
63707;PMS5003;67643;-34.198;22.084;2023-02-15T08:46:50;5;4;
63707;PMS5003;67643;-34.198;22.084;2023-02-15T08:49:20;8;5;
63707;PMS5003;67643;-34.198;22.084;2023-02-15T08:51:49;4;2;
63707;PMS5003;67643;-34.198;22.084;2023-02-15T08:54:19;4;3;
63707;PMS5003;67643;-34.198;22.084;2023-02-15T08:56:48;2;2;
63707;PMS5003;67643;-34.198;22.084;2023-02-15T08:59:17;6;3;
63707;PMS5003;67643;-34.198;22.084;2023-02-15T09:01:47;6;6;
63707;PMS5003;67643;-34.198;22.084;2023-02-15T09:04:17;7;3;
63707;PMS5003;67643;-34.198;22.084;2023-02-15T09:06:47;4;3;
63707;PMS5003;67643;-34.198;22.084;2023-02-15T09:09:16;3;3;
63707;PMS5003;67643;-34.198;22.084;2023-02-15T09:11:46;6;5;
63707;PMS5003;67643;-34.198;22.084;2023-02-15T09:14:17;4;4;
63707;PMS5003;67643;-34.198;22.084;2023-02-15T09:16:47;6;3;
63707;PMS5003;67643;-34.198;22.084;2023-02-15T09:19:16;7;5;
63707;PMS5003;67643;-34.198;22.084;2023-02-15T09:21:46;5;4;
63707;PMS5003;67643;-34.198;22.084;2023-02-15T09:24:16;7;6;
63707;PMS5003;67643;-34.198;22.084;2023-02-15T09:26:45;6;5;
63707;PMS5003;67643;-34.198;22.084;2023-02-15T09:29:15;5;4;
63707;PMS5003;67643;-34.198;22.084;2023-02-15T09:31:47;4;3;
63707;PMS5003;67643;-34.198;22.084;2023-02-15T09:34:18;8;5;
63707;PMS5003;67643;-34.198;22.084;2023-02-15T09:36:48;4;4;
63707;PMS5003;67643;-34.198;22.084;2023-02-15T09:39:18;3;2;
63707;PMS5003;67643;-34.198;22.084;2023-02-15T09:41:53;3;3;
63707;PMS5003;67643;-34.198;22.084;2023-02-15T09:44:42;4;3;
63707;PMS5003;67643;-34.198;22.084;2023-02-15T09:47:29;5;5;
63707;PMS5003;67643;-34.198;22.084;2023-02-15T09:50:12;3;3;
63707;PMS5003;67643;-34.198;22.084;2023-02-15T09:52:49;4;2;
63707;PMS5003;67643;-34.198;22.084;2023-02-15T09:55:35;1;1;
63707;PMS5003;67643;-34.198;22.084;2023-02-15T09:58:11;2;2;
63707;PMS5003;67643;-34.198;22.084;2023-02-15T10:00:49;3;2;
63707;PMS5003;67643;-34.198;22.084;2023-02-15T10:03:31;3;2;
63707;PMS5003;67643;-34.198;22.084;2023-02-15T10:06:14;3;3;
63707;PMS5003;67643;-34.198;22.084;2023-02-15T10:09:03;2;2;
63707;PMS5003;67643;-34.198;22.084;2023-02-15T10:11:45;9;5;
63707;PMS5003;67643;-34.198;22.084;2023-02-15T10:14:30;5;3;
63707;PMS5003;67643;-34.198;22.084;2023-02-15T10:17:14;7;6;
63707;PMS5003;67643;-34.198;22.084;2023-02-15T10:19:55;2;2;
63707;PMS5003;67643;-34.198;22.084;2023-02-15T10:22:37;3;2;
63707;PMS5003;67643;-34.198;22.084;2023-02-15T10:25:17;3;1;
63707;PMS5003;67643;-34.198;22.084;2023-02-15T10:27:55;5;1;
63707;PMS5003;67643;-34.198;22.084;2023-02-15T10:30:31;2;2;
63707;PMS5003;67643;-34.198;22.084;2023-02-15T10:33:08;4;2;
63707;PMS5003;67643;-34.198;22.084;2023-02-15T10:35:44;3;2;
63707;PMS5003;67643;-34.198;22.084;2023-02-15T10:38:25;3;0;
63707;PMS5003;67643;-34.198;22.084;2023-02-15T10:41:05;10;3;
63707;PMS5003;67643;-34.198;22.084;2023-02-15T10:43:49;5;4;
63707;PMS5003;67643;-34.198;22.084;2023-02-15T10:46:37;1;1;
63707;PMS5003;67643;-34.198;22.084;2023-02-15T10:49:29;3;3;
63707;PMS5003;67643;-34.198;22.084;2023-02-15T10:52:13;3;1;
63707;PMS5003;67643;-34.198;22.084;2023-02-15T10:54:53;2;2;
63707;PMS5003;67643;-34.198;22.084;2023-02-15T10:57:30;1;1;
63707;PMS5003;67643;-34.198;22.084;2023-02-15T11:00:09;2;2;
63707;PMS5003;67643;-34.198;22.084;2023-02-15T11:02:52;2;1;
63707;PMS5003;67643;-34.198;22.084;2023-02-15T11:05:45;2;2;
63707;PMS5003;67643;-34.198;22.084;2023-02-15T11:08:23;2;1;
63707;PMS5003;67643;-34.198;22.084;2023-02-15T11:10:57;4;2;
63707;PMS5003;67643;-34.198;22.084;2023-02-15T11:13:31;3;1;
63707;PMS5003;67643;-34.198;22.084;2023-02-15T11:16:05;0;0;
63707;PMS5003;67643;-34.198;22.084;2023-02-15T11:18:39;4;4;
63707;PMS5003;67643;-34.198;22.084;2023-02-15T11:21:11;5;3;
63707;PMS5003;67643;-34.198;22.084;2023-02-15T11:23:47;2;2;
63707;PMS5003;67643;-34.198;22.084;2023-02-15T11:26:16;2;1;
63707;PMS5003;67643;-34.198;22.084;2023-02-15T11:28:52;4;2;
63707;PMS5003;67643;-34.198;22.084;2023-02-15T11:31:24;4;1;
63707;PMS5003;67643;-34.198;22.084;2023-02-15T11:33:58;7;2;
63707;PMS5003;67643;-34.198;22.084;2023-02-15T11:36:32;2;2;
63707;PMS5003;67643;-34.198;22.084;2023-02-15T11:39:07;3;2;
63707;PMS5003;67643;-34.198;22.084;2023-02-15T11:41:39;4;2;
63707;PMS5003;67643;-34.198;22.084;2023-02-15T11:44:13;7;3;
63707;PMS5003;67643;-34.198;22.084;2023-02-15T11:46:44;11;4;
63707;PMS5003;67643;-34.198;22.084;2023-02-15T11:49:19;6;6;
63707;PMS5003;67643;-34.198;22.084;2023-02-15T11:51:50;5;3;
63707;PMS5003;67643;-34.198;22.084;2023-02-15T11:54:21;2;2;
63707;PMS5003;67643;-34.198;22.084;2023-02-15T11:56:52;7;4;
63707;PMS5003;67643;-34.198;22.084;2023-02-15T11:59:24;4;2;
63707;PMS5003;67643;-34.198;22.084;2023-02-15T14:08:34;5;2;
63707;PMS5003;67643;-34.198;22.084;2023-02-15T14:11:15;0;0;
63707;PMS5003;67643;-34.198;22.084;2023-02-15T14:13:53;3;1;
63707;PMS5003;67643;-34.198;22.084;2023-02-15T14:16:39;1;1;
63707;PMS5003;67643;-34.198;22.084;2023-02-15T14:19:18;5;3;
63707;PMS5003;67643;-34.198;22.084;2023-02-15T14:21:56;1;1;
63707;PMS5003;67643;-34.198;22.084;2023-02-15T14:24:30;2;2;
63707;PMS5003;67643;-34.198;22.084;2023-02-15T14:27:09;3;1;
63707;PMS5003;67643;-34.198;22.084;2023-02-15T14:29:47;3;2;
63707;PMS5003;67643;-34.198;22.084;2023-02-15T14:32:21;1;0;
63707;PMS5003;67643;-34.198;22.084;2023-02-15T14:34:57;3;1;
63707;PMS5003;67643;-34.198;22.084;2023-02-15T14:37:31;3;1;
63707;PMS5003;67643;-34.198;22.084;2023-02-15T14:40:10;1;1;
63707;PMS5003;67643;-34.198;22.084;2023-02-15T14:42:48;4;2;
63707;PMS5003;67643;-34.198;22.084;2023-02-15T14:45:24;0;0;
63707;PMS5003;67643;-34.198;22.084;2023-02-15T14:48:01;3;2;
63707;PMS5003;67643;-34.198;22.084;2023-02-15T14:50:37;5;1;
63707;PMS5003;67643;-34.198;22.084;2023-02-15T14:53:15;1;1;
63707;PMS5003;67643;-34.198;22.084;2023-02-15T14:56:05;1;1;
63707;PMS5003;67643;-34.198;22.084;2023-02-15T14:58:54;3;1;
63707;PMS5003;67643;-34.198;22.084;2023-02-15T15:01:26;1;1;
63707;PMS5003;67643;-34.198;22.084;2023-02-15T15:03:57;0;0;
63707;PMS5003;67643;-34.198;22.084;2023-02-15T15:06:30;1;1;
63707;PMS5003;67643;-34.198;22.084;2023-02-15T15:09:01;2;1;
63707;PMS5003;67643;-34.198;22.084;2023-02-15T15:11:42;0;0;
63707;PMS5003;67643;-34.198;22.084;2023-02-15T15:14:37;2;0;
63707;PMS5003;67643;-34.198;22.084;2023-02-15T15:17:10;1;1;
63707;PMS5003;67643;-34.198;22.084;2023-02-15T15:20:36;1;1;
63707;PMS5003;67643;-34.198;22.084;2023-02-15T15:23:38;2;0;
63707;PMS5003;67643;-34.198;22.084;2023-02-15T15:26:29;1;1;
63707;PMS5003;67643;-34.198;22.084;2023-02-15T15:28:59;0;0;
63707;PMS5003;67643;-34.198;22.084;2023-02-15T15:31:40;1;1;
63707;PMS5003;67643;-34.198;22.084;2023-02-15T15:34:18;3;1;
63707;PMS5003;67643;-34.198;22.084;2023-02-15T15:37:33;1;1;
63707;PMS5003;67643;-34.198;22.084;2023-02-15T15:40:21;0;0;
63707;PMS5003;67643;-34.198;22.084;2023-02-15T15:43:53;1;1;
63707;PMS5003;67643;-34.198;22.084;2023-02-15T15:46:49;4;1;
63707;PMS5003;67643;-34.198;22.084;2023-02-15T15:49:29;2;2;
63707;PMS5003;67643;-34.198;22.084;2023-02-15T15:52:00;3;2;
63707;PMS5003;67643;-34.198;22.084;2023-02-15T15:54:30;1;1;
63707;PMS5003;67643;-34.198;22.084;2023-02-15T15:57:00;1;1;
63707;PMS5003;67643;-34.198;22.084;2023-02-15T15:59:32;1;0;
63707;PMS5003;67643;-34.198;22.084;2023-02-15T16:02:04;4;1;
63707;PMS5003;67643;-34.198;22.084;2023-02-15T16:04:34;1;1;
63707;PMS5003;67643;-34.198;22.084;2023-02-15T16:07:13;2;2;
63707;PMS5003;67643;-34.198;22.084;2023-02-15T16:09:58;3;1;
63707;PMS5003;67643;-34.198;22.084;2023-02-15T16:12:28;0;0;
63707;PMS5003;67643;-34.198;22.084;2023-02-15T16:14:58;1;1;
63707;PMS5003;67643;-34.198;22.084;2023-02-15T16:17:31;1;1;
63707;PMS5003;67643;-34.198;22.084;2023-02-15T16:20:02;1;1;
63707;PMS5003;67643;-34.198;22.084;2023-02-15T16:22:34;2;2;
63707;PMS5003;67643;-34.198;22.084;2023-02-15T16:25:13;4;2;
63707;PMS5003;67643;-34.198;22.084;2023-02-15T16:27:56;2;2;
63707;PMS5003;67643;-34.198;22.084;2023-02-15T16:30:34;2;2;
63707;PMS5003;67643;-34.198;22.084;2023-02-15T16:33:05;1;1;
63707;PMS5003;67643;-34.198;22.084;2023-02-15T16:35:35;4;2;
63707;PMS5003;67643;-34.198;22.084;2023-02-15T16:38:08;4;3;
63707;PMS5003;67643;-34.198;22.084;2023-02-15T16:40:40;0;0;
63707;PMS5003;67643;-34.198;22.084;2023-02-15T16:43:16;1;0;
63707;PMS5003;67643;-34.198;22.084;2023-02-15T16:45:50;1;0;
63707;PMS5003;67643;-34.198;22.084;2023-02-15T16:48:23;2;1;
63707;PMS5003;67643;-34.198;22.084;2023-02-15T16:50:54;2;2;
63707;PMS5003;67643;-34.198;22.084;2023-02-15T16:53:25;4;1;
63707;PMS5003;67643;-34.198;22.084;2023-02-15T16:55:55;1;1;
63707;PMS5003;67643;-34.198;22.084;2023-02-15T16:58:28;3;0;
63707;PMS5003;67643;-34.198;22.084;2023-02-15T17:01:03;1;1;
63707;PMS5003;67643;-34.198;22.084;2023-02-15T17:03:35;2;1;
63707;PMS5003;67643;-34.198;22.084;2023-02-15T17:06:05;2;1;
63707;PMS5003;67643;-34.198;22.084;2023-02-15T17:08:47;4;2;
63707;PMS5003;67643;-34.198;22.084;2023-02-15T17:11:17;3;1;
63707;PMS5003;67643;-34.198;22.084;2023-02-15T17:14:20;1;1;
63707;PMS5003;67643;-34.198;22.084;2023-02-15T17:16:53;1;0;
63707;PMS5003;67643;-34.198;22.084;2023-02-15T17:19:27;3;1;
63707;PMS5003;67643;-34.198;22.084;2023-02-15T17:21:58;2;1;
63707;PMS5003;67643;-34.198;22.084;2023-02-15T17:24:32;1;1;
63707;PMS5003;67643;-34.198;22.084;2023-02-15T17:27:06;2;0;
63707;PMS5003;67643;-34.198;22.084;2023-02-15T17:29:41;1;1;
63707;PMS5003;67643;-34.198;22.084;2023-02-15T17:32:14;3;2;
63707;PMS5003;67643;-34.198;22.084;2023-02-15T17:34:47;1;0;
63707;PMS5003;67643;-34.198;22.084;2023-02-15T17:37:24;1;1;
63707;PMS5003;67643;-34.198;22.084;2023-02-15T17:39:55;1;1;
63707;PMS5003;67643;-34.198;22.084;2023-02-15T17:42:25;1;1;
63707;PMS5003;67643;-34.198;22.084;2023-02-15T17:44:53;1;1;
63707;PMS5003;67643;-34.198;22.084;2023-02-15T17:47:23;3;2;
63707;PMS5003;67643;-34.198;22.084;2023-02-15T17:49:52;2;1;
63707;PMS5003;67643;-34.198;22.084;2023-02-15T17:52:21;2;1;
63707;PMS5003;67643;-34.198;22.084;2023-02-15T17:54:55;3;2;
63707;PMS5003;67643;-34.198;22.084;2023-02-15T17:57:23;1;1;
63707;PMS5003;67643;-34.198;22.084;2023-02-15T17:59:52;4;1;
63707;PMS5003;67643;-34.198;22.084;2023-02-15T18:02:20;2;1;
63707;PMS5003;67643;-34.198;22.084;2023-02-15T18:04:49;2;2;
63707;PMS5003;67643;-34.198;22.084;2023-02-15T18:07:17;1;1;
63707;PMS5003;67643;-34.198;22.084;2023-02-15T18:09:47;2;2;
63707;PMS5003;67643;-34.198;22.084;2023-02-15T18:12:18;1;1;
63707;PMS5003;67643;-34.198;22.084;2023-02-15T18:14:48;1;1;
63707;PMS5003;67643;-34.198;22.084;2023-02-15T18:17:19;4;2;
63707;PMS5003;67643;-34.198;22.084;2023-02-15T18:19:53;2;1;
63707;PMS5003;67643;-34.198;22.084;2023-02-15T18:22:21;1;1;
63707;PMS5003;67643;-34.198;22.084;2023-02-15T18:24:49;1;1;
63707;PMS5003;67643;-34.198;22.084;2023-02-15T18:27:18;4;1;
63707;PMS5003;67643;-34.198;22.084;2023-02-15T18:29:46;2;2;
63707;PMS5003;67643;-34.198;22.084;2023-02-15T18:32:16;5;1;
63707;PMS5003;67643;-34.198;22.084;2023-02-15T18:34:48;1;1;
63707;PMS5003;67643;-34.198;22.084;2023-02-15T18:37:18;0;0;
63707;PMS5003;67643;-34.198;22.084;2023-02-15T18:39:48;2;2;
63707;PMS5003;67643;-34.198;22.084;2023-02-15T18:42:19;3;1;
63707;PMS5003;67643;-34.198;22.084;2023-02-15T18:44:49;2;2;
63707;PMS5003;67643;-34.198;22.084;2023-02-15T18:47:22;2;2;
63707;PMS5003;67643;-34.198;22.084;2023-02-15T18:49:51;5;2;
63707;PMS5003;67643;-34.198;22.084;2023-02-15T18:52:21;2;2;
63707;PMS5003;67643;-34.198;22.084;2023-02-15T18:54:55;1;1;
63707;PMS5003;67643;-34.198;22.084;2023-02-15T18:57:27;2;2;
63707;PMS5003;67643;-34.198;22.084;2023-02-15T18:59:56;1;1;
63707;PMS5003;67643;-34.198;22.084;2023-02-15T19:02:25;4;1;
63707;PMS5003;67643;-34.198;22.084;2023-02-15T19:04:53;1;1;
63707;PMS5003;67643;-34.198;22.084;2023-02-15T19:07:22;4;2;
63707;PMS5003;67643;-34.198;22.084;2023-02-15T19:09:54;1;1;
63707;PMS5003;67643;-34.198;22.084;2023-02-15T19:12:26;0;0;
63707;PMS5003;67643;-34.198;22.084;2023-02-15T19:14:55;4;1;
63707;PMS5003;67643;-34.198;22.084;2023-02-15T19:17:23;4;3;
63707;PMS5003;67643;-34.198;22.084;2023-02-15T19:19:51;2;1;
63707;PMS5003;67643;-34.198;22.084;2023-02-15T19:22:22;3;1;
63707;PMS5003;67643;-34.198;22.084;2023-02-15T19:24:53;1;1;
63707;PMS5003;67643;-34.198;22.084;2023-02-15T19:27:25;4;3;
63707;PMS5003;67643;-34.198;22.084;2023-02-15T19:29:56;3;2;
63707;PMS5003;67643;-34.198;22.084;2023-02-15T19:32:25;2;2;
63707;PMS5003;67643;-34.198;22.084;2023-02-15T19:34:54;3;1;
63707;PMS5003;67643;-34.198;22.084;2023-02-15T19:37:23;0;0;
63707;PMS5003;67643;-34.198;22.084;2023-02-15T19:39:55;2;0;
63707;PMS5003;67643;-34.198;22.084;2023-02-15T19:42:24;1;0;
63707;PMS5003;67643;-34.198;22.084;2023-02-15T19:44:53;2;0;
63707;PMS5003;67643;-34.198;22.084;2023-02-15T19:47:21;3;1;
63707;PMS5003;67643;-34.198;22.084;2023-02-15T19:49:51;2;0;
63707;PMS5003;67643;-34.198;22.084;2023-02-15T19:52:20;0;0;
63707;PMS5003;67643;-34.198;22.084;2023-02-15T19:54:49;1;0;
63707;PMS5003;67643;-34.198;22.084;2023-02-15T19:57:19;1;1;
63707;PMS5003;67643;-34.198;22.084;2023-02-15T19:59:47;0;0;
63707;PMS5003;67643;-34.198;22.084;2023-02-15T22:11:16;3;1;
63707;PMS5003;67643;-34.198;22.084;2023-02-15T22:13:46;5;4;
63707;PMS5003;67643;-34.198;22.084;2023-02-15T22:16:16;2;2;
63707;PMS5003;67643;-34.198;22.084;2023-02-15T22:18:47;0;0;
63707;PMS5003;67643;-34.198;22.084;2023-02-15T22:21:15;4;2;
63707;PMS5003;67643;-34.198;22.084;2023-02-15T22:23:44;3;1;
63707;PMS5003;67643;-34.198;22.084;2023-02-15T22:26:14;6;2;
63707;PMS5003;67643;-34.198;22.084;2023-02-15T22:28:47;1;1;
63707;PMS5003;67643;-34.198;22.084;2023-02-15T22:31:17;6;1;
63707;PMS5003;67643;-34.198;22.084;2023-02-15T22:33:48;2;2;
63707;PMS5003;67643;-34.198;22.084;2023-02-15T22:36:20;4;3;
63707;PMS5003;67643;-34.198;22.084;2023-02-15T22:38:51;2;1;
63707;PMS5003;67643;-34.198;22.084;2023-02-15T22:41:22;3;1;
63707;PMS5003;67643;-34.198;22.084;2023-02-15T22:43:53;7;2;
63707;PMS5003;67643;-34.198;22.084;2023-02-15T22:46:23;2;0;
63707;PMS5003;67643;-34.198;22.084;2023-02-15T22:48:52;2;2;
63707;PMS5003;67643;-34.198;22.084;2023-02-15T22:51:21;1;1;
63707;PMS5003;67643;-34.198;22.084;2023-02-15T22:53:51;4;2;
63707;PMS5003;67643;-34.198;22.084;2023-02-15T22:56:20;6;2;
63707;PMS5003;67643;-34.198;22.084;2023-02-15T22:58:53;2;1;
63707;PMS5003;67643;-34.198;22.084;2023-02-15T23:01:29;4;1;
63707;PMS5003;67643;-34.198;22.084;2023-02-15T23:03:58;6;2;
63707;PMS5003;67643;-34.198;22.084;2023-02-15T23:06:28;5;3;
63707;PMS5003;67643;-34.198;22.084;2023-02-15T23:08:58;3;3;
63707;PMS5003;67643;-34.198;22.084;2023-02-15T23:11:27;2;0;
63707;PMS5003;67643;-34.198;22.084;2023-02-15T23:13:57;5;4;